This is the latest recevied weather packets stored in our database for station/object EA1CUE-WX. If no packets are shown the sender has not sent any weather packets the latest 1 day(s).
| Time | Temp. | Humidity | Pressure | Rain* | Wind** | Luminosity | Snow |
|---|---|---|---|---|---|---|---|
| 1777988926 | 9.44° C | 8% | 1014 hPa | 0.25 mm | 0.45 m/s, 264° | - | - |
| 1777988626 | 10° C | 19% | 1013.9 hPa | 0.25 mm | 0.45 m/s, 239° | - | - |
| 1777988326 | 11.11° C | 28% | 1013.8 hPa | 0 mm | 0.45 m/s, 337° | - | - |
| 1777988026 | 11.67° C | 36% | 1013.7 hPa | 0 mm | 1.34 m/s, 321° | - | - |
| 1777987726 | 11.67° C | 40% | 1013.6 hPa | 0 mm | 0.45 m/s, 324° | - | - |
| 1777987426 | 11.67° C | 45% | 1013.6 hPa | 0 mm | 0 m/s | - | - |
| 1777987126 | 12.22° C | 46% | 1013.7 hPa | 0 mm | 0.89 m/s, 340° | - | - |
| 1777986826 | 12.78° C | 45% | 1013.6 hPa | 0 mm | 0.89 m/s, 338° | - | - |
| 1777986526 | 12.78° C | 45% | 1013.5 hPa | 0 mm | 0 m/s | - | - |
| 1777986226 | 13.33° C | 43% | 1013.6 hPa | 0 mm | 0.89 m/s, 352° | - | - |
| 1777985926 | 12.78° C | 40% | 1013.5 hPa | 0 mm | 1.34 m/s, 311° | - | - |
| 1777985626 | 13.33° C | 38% | 1013.6 hPa | 0 mm | 0.45 m/s, 316° | - | - |
| 1777985326 | 12.78° C | 38% | 1013.5 hPa | 0 mm | 0.45 m/s, 326° | - | - |
| 1777985026 | 12.78° C | 33% | 1013.5 hPa | 0 mm | 1.34 m/s, 319° | - | - |
| 1777984726 | 12.78° C | 29% | 1013.6 hPa | 0 mm | 0.89 m/s, 322° | - | - |
| 1777984426 | 12.22° C | 31% | 1013.6 hPa | 0 mm | 1.79 m/s, 334° | - | - |
| 1777984126 | 12.22° C | 28% | 1013.7 hPa | 0 mm | 0 m/s | - | - |
| 1777983826 | 12.22° C | 2% | 1013.7 hPa | 0 mm | 0 m/s | - | - |
| 1777983526 | 11.67° C | 5% | 1013.7 hPa | 0 mm | 0 m/s | - | - |
| 1777983226 | 11.11° C | 5% | 1013.7 hPa | 0 mm | 1.34 m/s, 321° | - | - |
| 1777982926 | 11.11° C | 1% | 1013.7 hPa | 0 mm | 0 m/s | - | - |
| 1777982626 | 10.56° C | 1% | 1013.7 hPa | 0 mm | 0.45 m/s, 25° | - | - |
| 1777982326 | 10.56° C | 1% | 1013.8 hPa | 0 mm | 0.89 m/s, 333° | - | - |
| 1777982026 | 10.56° C | 7% | 1013.7 hPa | 0 mm | 1.34 m/s, 339° | - | - |
| 1777981726 | 10.56° C | 17% | 1013.8 hPa | 0 mm | 0.89 m/s, 251° | - | - |
* Rain latest hour (hover to see other rain measurements)
** Current wind speed in m/s (hover to see current wind gust speed)